Time;durP1;ratioP1;P1;durP2;ratioP2;P2;SDS_P1;SDS_P2;PMS_P1;PMS_P2;Temp;Humidity;BMP_temperature;BMP_pressure;BME280_temperature;BME280_humidity;BME280_pressure;Samples;Min_cycle;Max_cycle;Signal;HPM_P1;HPM_P2
2022/03/21 00:01:23;;;;;;;16.93;12.57;;;;;;;;;;5112671;28;20504;-71
2022/03/21 00:03:52;;;;;;;12.10;9.23;;;;;;;;;;5108761;28;20753;-72
2022/03/21 00:06:20;;;;;;;14.40;10.63;;;;;;;;;;5112478;28;20895;-70
2022/03/21 00:08:47;;;;;;;12.77;10.00;;;;;;;;;;5108877;28;20509;-71
2022/03/21 00:11:14;;;;;;;14.03;9.93;;;;;;;;;;5111906;28;20879;-71
2022/03/21 00:13:41;;;;;;;14.23;9.90;;;;;;;;;;5111816;28;20951;-71
2022/03/21 00:16:09;;;;;;;17.80;10.60;;;;;;;;;;5112610;28;20525;-70
2022/03/21 00:18:36;;;;;;;16.90;10.93;;;;;;;;;;5106727;28;20523;-71
2022/03/21 00:21:05;;;;;;;14.23;11.30;;;;;;;;;;5109807;28;20455;-71
2022/03/21 00:23:33;;;;;;;17.23;10.20;;;;;;;;;;5092173;28;20941;-71
2022/03/21 00:26:01;;;;;;;13.13;9.90;;;;;;;;;;5097357;28;20448;-71
2022/03/21 00:28:28;;;;;;;13.90;11.27;;;;;;;;;;5111525;28;20505;-71
2022/03/21 00:30:55;;;;;;;18.20;10.93;;;;;;;;;;5102717;28;21027;-72
2022/03/21 00:33:23;;;;;;;15.70;10.97;;;;;;;;;;5112148;28;20451;-72
2022/03/21 00:35:50;;;;;;;13.10;10.50;;;;;;;;;;5111154;28;20982;-72
2022/03/21 00:38:20;;;;;;;13.40;10.13;;;;;;;;;;5112082;28;20452;-71
2022/03/21 00:40:47;;;;;;;15.00;10.87;;;;;;;;;;5107585;28;21334;-71
2022/03/21 00:43:16;;;;;;;14.17;9.60;;;;;;;;;;5101836;28;20497;-72
2022/03/21 00:45:46;;;;;;;15.30;9.23;;;;;;;;;;5111206;28;20947;-72
2022/03/21 00:48:13;;;;;;;16.90;10.57;;;;;;;;;;5112012;28;20472;-72
2022/03/21 00:50:40;;;;;;;14.13;11.00;;;;;;;;;;5108494;28;20529;-72
2022/03/21 00:53:08;;;;;;;15.50;10.70;;;;;;;;;;5111892;28;20536;-72
2022/03/21 00:55:36;;;;;;;15.30;10.60;;;;;;;;;;5102086;28;20520;-73
2022/03/21 00:58:04;;;;;;;13.63;9.50;;;;;;;;;;5103906;28;20486;-72
2022/03/21 01:00:31;;;;;;;14.73;9.93;;;;;;;;;;5096546;28;20515;-70
2022/03/21 01:03:00;;;;;;;15.10;11.17;;;;;;;;;;5109763;28;20455;-71
2022/03/21 01:05:28;;;;;;;14.17;9.57;;;;;;;;;;5111142;28;20476;-69
2022/03/21 01:07:55;;;;;;;16.27;11.27;;;;;;;;;;5113052;28;21021;-71
2022/03/21 01:10:22;;;;;;;12.53;9.97;;;;;;;;;;5106018;28;20531;-71
2022/03/21 01:12:52;;;;;;;14.63;10.23;;;;;;;;;;5105492;28;20453;-71
2022/03/21 01:15:20;;;;;;;18.00;9.67;;;;;;;;;;5106596;28;20487;-70
2022/03/21 01:17:47;;;;;;;16.97;11.67;;;;;;;;;;5104974;28;20701;-70
2022/03/21 01:20:16;;;;;;;15.47;10.57;;;;;;;;;;5111092;28;20451;-69
2022/03/21 01:22:43;;;;;;;16.90;10.40;;;;;;;;;;5111449;28;20486;-72
2022/03/21 01:25:11;;;;;;;16.23;10.13;;;;;;;;;;5111269;28;20464;-71
2022/03/21 01:27:39;;;;;;;19.83;10.97;;;;;;;;;;5102521;28;20480;-71
2022/03/21 01:30:09;;;;;;;16.17;9.87;;;;;;;;;;5100065;28;20449;-71
2022/03/21 01:32:37;;;;;;;15.50;10.10;;;;;;;;;;5092730;28;20813;-71
2022/03/21 01:35:05;;;;;;;14.80;9.83;;;;;;;;;;5110043;28;20481;-72
2022/03/21 01:37:32;;;;;;;14.07;10.03;;;;;;;;;;5110378;28;21137;-71
2022/03/21 01:40:00;;;;;;;16.73;10.03;;;;;;;;;;5100611;28;20531;-70
2022/03/21 01:42:27;;;;;;;15.30;10.30;;;;;;;;;;5106232;28;20539;-72
2022/03/21 01:44:57;;;;;;;15.43;10.13;;;;;;;;;;5109840;28;20490;-71
2022/03/21 01:47:26;;;;;;;16.53;10.03;;;;;;;;;;5102922;28;20457;-71
2022/03/21 01:49:53;;;;;;;13.03;10.20;;;18.70;1.00;;;;;;5108790;28;20461;-72
2022/03/21 01:52:21;;;;;;;15.50;10.80;;;;;;;;;;5110806;28;20499;-72
2022/03/21 01:57:33;;;;;;;15.90;10.57;;;;;;;;;;5097672;28;20423;-70
2022/03/21 02:00:01;;;;;;;15.90;9.80;;;;;;;;;;5097839;28;20452;-71
2022/03/21 02:02:29;;;;;;;17.83;9.80;;;;;;;;;;5110040;28;20446;-70
2022/03/21 02:04:56;;;;;;;18.30;9.93;;;;;;;;;;5109116;28;20796;-71
2022/03/21 02:07:25;;;;;;;17.07;9.70;;;;;;;;;;5111463;28;20523;-73
2022/03/21 02:09:52;;;;;;;15.83;10.27;;;;;;;;;;5109544;28;20538;-72
2022/03/21 02:12:19;;;;;;;18.47;11.50;;;;;;;;;;5110158;28;20458;-72
2022/03/21 02:14:47;;;;;;;12.93;9.67;;;;;;;;;;5108622;28;20806;-72
2022/03/21 02:17:18;;;;;;;12.60;10.40;;;;;;;;;;5110649;28;20518;-72
2022/03/21 02:19:47;;;;;;;14.97;9.57;;;;;;;;;;5108629;28;20446;-72
2022/03/21 02:22:24;;;;;;;16.87;9.90;;;;;;;;;;5110221;28;20500;-73
2022/03/21 02:24:56;;;;;;;14.90;10.30;;;;;;;;;;5103090;28;20455;-72
2022/03/21 02:27:27;;;;;;;14.33;9.93;;;;;;;;;;5105258;28;20518;-72
2022/03/21 02:29:54;;;;;;;12.90;9.80;;;;;;;;;;5109337;28;20533;-71
2022/03/21 02:32:22;;;;;;;15.60;10.57;;;;;;;;;;5112829;28;22396;-72
2022/03/21 02:34:49;;;;;;;14.93;10.10;;;;;;;;;;5114006;28;20447;-72
2022/03/21 02:37:18;;;;;;;14.90;10.70;;;;;;;;;;5114704;28;20879;-71
2022/03/21 02:39:46;;;;;;;13.97;9.50;;;;;;;;;;5106505;28;20472;-72
2022/03/21 02:42:14;;;;;;;14.30;9.47;;;;;;;;;;5108312;28;20597;-72
2022/03/21 02:44:42;;;;;;;16.77;10.47;;;;;;;;;;5113740;28;20455;-72
2022/03/21 02:47:10;;;;;;;14.87;10.33;;;;;;;;;;5111950;28;20547;-72
2022/03/21 02:49:38;;;;;;;13.17;9.40;;;;;;;;;;5113272;28;20535;-71
2022/03/21 02:52:06;;;;;;;15.00;10.43;;;;;;;;;;5111863;28;20450;-72
2022/03/21 02:54:34;;;;;;;14.97;9.80;;;;;;;;;;5109235;28;20495;-72
2022/03/21 02:57:01;;;;;;;17.17;10.50;;;;;;;;;;5111412;28;20571;-72
2022/03/21 02:59:29;;;;;;;20.00;11.40;;;;;;;;;;5099321;28;20551;-71
2022/03/21 03:01:57;;;;;;;15.47;10.17;;;;;;;;;;5109416;28;20556;-72
2022/03/21 03:04:25;;;;;;;11.90;8.63;;;;;;;;;;5114233;28;20454;-72
2022/03/21 03:06:52;;;;;;;16.23;10.47;;;;;;;;;;5113022;28;20466;-72
2022/03/21 03:09:19;;;;;;;16.27;9.57;;;;;;;;;;5104657;28;20538;-71
2022/03/21 03:11:46;;;;;;;13.97;9.30;;;;;;;;;;5099099;28;20477;-71
2022/03/21 03:14:13;;;;;;;14.00;10.17;;;;;;;;;;5113731;28;20518;-71
2022/03/21 03:16:41;;;;;;;16.43;9.60;;;;;;;;;;5108898;28;20469;-72
2022/03/21 03:19:09;;;;;;;16.20;9.97;;;;;;;;;;5104576;28;20459;-72
2022/03/21 03:21:38;;;;;;;15.30;9.90;;;;;;;;;;5112612;28;20444;-71
2022/03/21 03:24:05;;;;;;;15.90;10.73;;;;;;;;;;5113308;28;20451;-71
2022/03/21 03:26:33;;;;;;;14.60;10.30;;;;;;;;;;5112650;28;20947;-71
2022/03/21 03:29:00;;;;;;;12.23;9.80;;;;;;;;;;5112450;28;20460;-71
2022/03/21 03:31:28;;;;;;;14.20;10.83;;;;;;;;;;5113457;28;20537;-70
2022/03/21 03:33:55;;;;;;;18.43;10.80;;;;;;;;;;5113485;28;20483;-71
2022/03/21 03:36:24;;;;;;;15.63;8.90;;;5.40;99.90;;;;;;5113360;28;20554;-71
2022/03/21 03:38:52;;;;;;;11.83;9.13;;;4.30;1.00;;;;;;5112483;28;20858;-70
2022/03/21 03:41:19;;;;;;;13.30;9.27;;;4.40;1.00;;;;;;5113330;28;20447;-72
2022/03/21 03:43:47;;;;;;;15.63;10.20;;;4.70;1.00;;;;;;5112569;28;20484;-72
2022/03/21 03:46:16;;;;;;;18.93;11.10;;;4.50;1.00;;;;;;5105984;28;20841;-72
2022/03/21 03:48:43;;;;;;;15.17;10.10;;;4.30;1.00;;;;;;5107198;28;20969;-72
2022/03/21 03:51:10;;;;;;;14.00;9.67;;;4.20;1.00;;;;;;5112367;28;20447;-72
2022/03/21 03:53:39;;;;;;;14.87;10.20;;;4.30;1.00;;;;;;5098088;28;20986;-71
2022/03/21 03:56:07;;;;;;;14.40;10.00;;;4.40;1.00;;;;;;5113561;28;20532;-72
2022/03/21 03:58:34;;;;;;;17.03;11.33;;;4.40;1.00;;;;;;5112080;28;20505;-72
2022/03/21 04:01:02;;;;;;;15.50;10.30;;;4.40;1.00;;;;;;5104375;28;20456;-72
2022/03/21 04:03:47;;;;;;;14.23;9.70;;;4.30;1.00;;;;;;5107553;28;20474;-72
2022/03/21 04:06:16;;;;;;;15.50;8.90;;;4.30;1.00;;;;;;5104873;28;20460;-72
2022/03/21 04:08:45;;;;;;;17.17;11.53;;;4.00;1.00;;;;;;5111533;28;20811;-72
2022/03/21 04:11:12;;;;;;;16.23;10.60;;;4.10;1.00;;;;;;5112251;28;20471;-72
2022/03/21 04:13:39;;;;;;;14.07;10.00;;;4.00;1.00;;;;;;5097987;28;20475;-72
2022/03/21 04:16:06;;;;;;;15.93;9.93;;;3.90;1.00;;;;;;5112578;28;20578;-71
2022/03/21 04:18:34;;;;;;;14.63;9.57;;;3.90;80.40;;;;;;5111156;28;20448;-72
2022/03/21 04:21:01;;;;;;;15.77;10.43;;;3.80;90.40;;;;;;5099731;28;20864;-71
2022/03/21 04:23:28;;;;;;;15.70;10.00;;;4.00;51.10;;;;;;5109856;28;20447;-70
2022/03/21 04:25:56;;;;;;;14.73;10.17;;;3.90;1.00;;;;;;5106979;28;20451;-71
2022/03/21 04:28:23;;;;;;;17.80;11.13;;;4.10;1.00;;;;;;5112627;28;20522;-71
2022/03/21 04:30:50;;;;;;;14.30;10.70;;;4.40;1.00;;;;;;5104826;28;20575;-71
2022/03/21 04:33:17;;;;;;;17.50;9.97;;;4.40;1.00;;;;;;5111324;28;20907;-71
2022/03/21 04:35:45;;;;;;;14.17;9.53;;;4.60;1.00;;;;;;5111357;28;20480;-72
2022/03/21 04:38:14;;;;;;;13.77;10.20;;;4.30;1.00;;;;;;5111963;28;20448;-72
2022/03/21 04:40:42;;;;;;;13.67;9.37;;;4.40;1.00;;;;;;5111140;28;20911;-72
2022/03/21 04:43:11;;;;;;;12.47;8.87;;;4.30;1.00;;;;;;5105263;28;20539;-72
2022/03/21 04:45:38;;;;;;;14.40;10.63;;;4.20;1.00;;;;;;5097790;28;20463;-72
2022/03/21 04:48:06;;;;;;;12.83;9.07;;;4.10;1.00;;;;;;5106106;28;20537;-72
2022/03/21 04:50:33;;;;;;;16.07;9.90;;;4.30;1.00;;;;;;5110680;28;20551;-72
2022/03/21 04:53:00;;;;;;;13.63;9.27;;;4.40;1.00;;;;;;5104911;28;20554;-72
2022/03/21 04:55:28;;;;;;;13.37;9.37;;;4.50;1.00;;;;;;5098274;28;20571;-70
2022/03/21 04:57:55;;;;;;;14.70;8.90;;;4.40;1.00;;;;;;5101172;28;21000;-71
2022/03/21 05:00:23;;;;;;;16.00;9.60;;;4.50;99.90;;;;;;5107773;28;20524;-73
2022/03/21 05:02:50;;;;;;;15.43;10.30;;;4.50;99.90;;;;;;5106092;28;20452;-71
2022/03/21 05:05:17;;;;;;;15.63;9.07;;;4.40;99.90;;;;;;5111548;28;20448;-71
2022/03/21 05:07:46;;;;;;;14.40;8.70;;;4.30;99.90;;;;;;5110672;28;20487;-71
2022/03/21 05:10:14;;;;;;;11.20;7.40;;;4.40;99.90;;;;;;5111356;28;20445;-72
2022/03/21 05:12:41;;;;;;;14.97;9.93;;;4.30;99.90;;;;;;5110203;28;20829;-72
2022/03/21 05:15:09;;;;;;;14.60;9.47;;;4.30;1.00;;;;;;5107106;28;20540;-73
2022/03/21 05:17:38;;;;;;;12.93;8.77;;;4.30;1.00;;;;;;5107415;28;20478;-73
2022/03/21 05:20:10;;;;;;;16.63;10.27;;;4.30;99.90;;;;;;5107400;28;20445;-70
2022/03/21 05:22:36;;;;;;;12.47;9.50;;;4.50;99.90;;;;;;5110918;28;20530;-70
2022/03/21 05:36:03;;;;;;;11.13;8.27;;;4.60;99.90;;;;;;5107193;28;20866;-71
2022/03/21 05:38:31;;;;;;;14.43;8.93;;;4.60;99.90;;;;;;5100532;28;20507;-70
2022/03/21 05:41:00;;;;;;;16.90;11.03;;;4.60;99.90;;;;;;5110110;28;20590;-70
2022/03/21 05:43:27;;;;;;;13.80;8.87;;;4.70;99.90;;;;;;5111356;28;20443;-70
2022/03/21 05:45:54;;;;;;;15.60;9.33;;;4.80;99.90;;;;;;5111081;28;20454;-74
2022/03/21 05:51:07;;;;;;;14.47;9.07;;;4.70;99.90;;;;;;5090843;28;20918;-71
2022/03/21 05:53:34;;;;;;;14.00;8.80;;;4.70;99.90;;;;;;5106240;28;20441;-71
2022/03/21 05:56:02;;;;;;;15.03;10.90;;;4.60;99.90;;;;;;5110831;28;20572;-71
2022/03/21 05:58:29;;;;;;;15.43;9.20;;;4.50;99.90;;;;;;5110034;28;20453;-70
2022/03/21 06:00:57;;;;;;;13.20;8.57;;;4.60;99.90;;;;;;5110404;28;20466;-70
2022/03/21 06:03:25;;;;;;;13.17;8.73;;;4.70;99.90;;;;;;5111057;28;21057;-70
2022/03/21 06:05:55;;;;;;;15.83;9.10;;;4.70;99.90;;;;;;5111437;28;20446;-70
2022/03/21 06:08:23;;;;;;;12.27;9.30;;;4.70;99.90;;;;;;5114662;28;20460;-70
2022/03/21 06:10:50;;;;;;;12.37;9.13;;;4.70;99.90;;;;;;5114354;28;20547;-71
2022/03/21 06:13:17;;;;;;;11.97;7.40;;;4.70;99.90;;;;;;5115216;28;20453;-70
2022/03/21 06:15:47;;;;;;;12.47;7.97;;;4.90;99.90;;;;;;5114316;28;20569;-71
2022/03/21 06:18:14;;;;;;;13.20;9.23;;;4.80;99.90;;;;;;5114692;28;20996;-70
2022/03/21 06:20:43;;;;;;;13.17;8.73;;;4.90;99.90;;;;;;5113842;28;20450;-70
2022/03/21 06:23:09;;;;;;;10.53;7.57;;;4.90;99.90;;;;;;5115189;28;20857;-71
2022/03/21 06:25:37;;;;;;;19.80;8.97;;;5.00;99.90;;;;;;5114651;28;20466;-70
2022/03/21 06:28:04;;;;;;;18.00;9.53;;;5.00;99.90;;;;;;5114650;28;20545;-71
2022/03/21 06:30:32;;;;;;;11.20;8.07;;;5.00;99.90;;;;;;5113931;28;20452;-70
2022/03/21 06:32:58;;;;;;;14.77;8.80;;;5.20;99.90;;;;;;5114859;28;20479;-70
2022/03/21 06:35:25;;;;;;;11.93;8.50;;;5.30;99.90;;;;;;5114939;28;20450;-70
2022/03/21 06:37:54;;;;;;;15.50;9.57;;;5.40;99.90;;;;;;5113952;28;20829;-71
2022/03/21 06:40:23;;;;;;;16.57;9.50;;;5.40;99.90;;;;;;5113903;28;20931;-71
2022/03/21 06:42:50;;;;;;;14.93;9.23;;;5.50;99.90;;;;;;5114180;28;20451;-70
2022/03/21 06:45:17;;;;;;;16.00;9.70;;;5.60;99.90;;;;;;5114696;28;20487;-70
2022/03/21 06:47:44;;;;;;;13.77;9.80;;;5.70;99.90;;;;;;5100358;28;20500;-71
2022/03/21 06:50:11;;;;;;;13.50;8.70;;;5.80;99.90;;;;;;5114284;28;20507;-71
2022/03/21 06:52:39;;;;;;;15.83;8.87;;;5.90;99.90;;;;;;5113864;28;20806;-70
2022/03/21 06:55:10;;;;;;;14.00;9.30;;;5.90;99.90;;;;;;5114428;28;20831;-70
2022/03/21 06:57:37;;;;;;;15.00;9.43;;;5.90;99.90;;;;;;5113594;28;20470;-70
2022/03/21 07:00:06;;;;;;;14.17;9.23;;;6.00;99.90;;;;;;5113522;28;20486;-71
2022/03/21 07:02:32;;;;;;;16.50;10.17;;;6.00;99.90;;;;;;5113455;28;20545;-70
2022/03/21 07:04:59;;;;;;;12.43;9.37;;;6.10;99.90;;;;;;5113897;28;20482;-71
2022/03/21 07:07:27;;;;;;;15.67;10.50;;;6.10;99.90;;;;;;5114430;28;20455;-70
2022/03/21 07:09:54;;;;;;;16.53;10.80;;;6.10;99.90;;;;;;5114068;28;20485;-71
2022/03/21 07:12:24;;;;;;;14.10;10.30;;;6.30;99.90;;;;;;5114214;28;20483;-71
2022/03/21 07:14:51;;;;;;;13.70;9.00;;;;;;;;;;5113443;28;20444;-72
2022/03/21 07:17:19;;;;;;;15.60;9.87;;;;;;;;;;5113223;28;20524;-71
2022/03/21 07:19:47;;;;;;;17.50;11.00;;;;;;;;;;5112527;28;20443;-71
2022/03/21 07:22:14;;;;;;;14.17;10.13;;;;;;;;;;5113922;28;20455;-71
2022/03/21 07:24:41;;;;;;;18.20;10.50;;;;;;;;;;5113570;28;20490;-71
2022/03/21 07:27:09;;;;;;;13.83;10.87;;;;;;;;;;5113661;28;20495;-71
2022/03/21 07:29:37;;;;;;;24.83;10.97;;;;;;;;;;5112834;28;20811;-71
2022/03/21 07:32:05;;;;;;;13.20;9.63;;;;;;;;;;5113955;28;20471;-71
2022/03/21 07:34:32;;;;;;;13.63;9.33;;;;;;;;;;5113204;28;20767;-71
2022/03/21 07:36:59;;;;;;;12.47;9.40;;;;;;;;;;5113453;28;20570;-71
2022/03/21 07:39:26;;;;;;;13.40;10.00;;;;;;;;;;5113353;28;20479;-70
2022/03/21 07:42:00;;;;;;;14.67;10.40;;;;;;;;;;5113280;28;20444;-70
2022/03/21 07:47:21;;;;;;;13.97;9.53;;;;;;;;;;5113257;28;20423;-71
2022/03/21 07:49:49;;;;;;;16.07;11.07;;;;;;;;;;5112387;28;20446;-71
2022/03/21 07:52:18;;;;;;;15.90;10.53;;;;;;;;;;5113330;28;20444;-71
2022/03/21 07:54:45;;;;;;;12.70;9.87;;;;;;;;;;5112070;28;20515;-71
2022/03/21 07:57:13;;;;;;;13.13;10.07;;;;;;;;;;5113002;28;20493;-71
2022/03/21 07:59:40;;;;;;;14.67;11.00;;;;;;;;;;5111989;28;20440;-71
2022/03/21 08:02:07;;;;;;;14.23;10.33;;;;;;;;;;5112607;28;20528;-72
2022/03/21 08:04:36;;;;;;;15.87;10.80;;;;;;;;;;5112231;28;20931;-70
2022/03/21 08:07:03;;;;;;;18.57;10.00;;;;;;;;;;5113150;28;20448;-70
2022/03/21 08:09:30;;;;;;;15.87;10.60;;;;;;;;;;5111999;28;20456;-70
2022/03/21 08:11:58;;;;;;;17.40;10.93;;;;;;;;;;5113258;28;20444;-70
2022/03/21 08:14:25;;;;;;;25.07;10.77;;;;;;;;;;5113021;28;20451;-70
2022/03/21 08:16:53;;;;;;;13.60;9.97;;;;;;;;;;5112961;28;20515;-71
2022/03/21 08:19:24;;;;;;;14.23;10.50;;;;;;;;;;5112196;28;20444;-72
2022/03/21 08:21:52;;;;;;;14.83;10.43;;;;;;;;;;5098767;28;20436;-71
2022/03/21 08:24:20;;;;;;;15.40;9.77;;;;;;;;;;5112548;28;20555;-71
2022/03/21 08:26:47;;;;;;;13.90;9.67;;;;;;;;;;5112169;28;20439;-70
2022/03/21 08:29:15;;;;;;;13.77;10.10;;;;;;;;;;5111202;28;20452;-71
2022/03/21 08:31:42;;;;;;;11.20;8.77;;;;;;;;;;5111665;28;20448;-71
2022/03/21 08:34:09;;;;;;;17.33;11.20;;;;;;;;;;5112105;28;20455;-72
2022/03/21 08:36:37;;;;;;;14.27;10.30;;;;;;;;;;5111725;28;20505;-72
2022/03/21 08:39:05;;;;;;;16.33;9.67;;;;;;;;;;5111768;28;20526;-71
2022/03/21 08:41:32;;;;;;;15.20;11.00;;;;;;;;;;5111195;28;20546;-70
2022/03/21 08:44:00;;;;;;;12.60;9.50;;;;;;;;;;5111803;28;20543;-72
2022/03/21 08:46:28;;;;;;;16.13;10.50;;;;;;;;;;5111707;28;20456;-71
2022/03/21 08:51:40;;;;;;;14.07;11.20;;;;;;;;;;5111706;28;20787;-71
2022/03/21 08:54:08;;;;;;;15.40;11.20;;;;;;;;;;5111880;28;20547;-71
2022/03/21 08:56:36;;;;;;;17.37;11.73;;;;;;;;;;5111429;28;20444;-71
2022/03/21 08:59:03;;;;;;;14.97;10.17;;;;;;;;;;5111506;28;20598;-71
2022/03/21 09:01:31;;;;;;;17.37;10.97;;;;;;;;;;5111550;28;20447;-71
2022/03/21 09:04:00;;;;;;;14.83;9.90;;;;;;;;;;5098599;28;20892;-72
2022/03/21 09:06:27;;;;;;;16.90;11.20;;;;;;;;;;5111672;28;20446;-71
2022/03/21 09:08:55;;;;;;;13.80;9.60;;;;;;;;;;5097951;28;20491;-71
2022/03/21 09:11:24;;;;;;;16.37;10.37;;;;;;;;;;5112126;28;20538;-73
2022/03/21 09:13:51;;;;;;;17.47;11.60;;;;;;;;;;5111207;28;20540;-71
2022/03/21 09:16:19;;;;;;;15.93;11.60;;;;;;;;;;5111295;28;20439;-71
2022/03/21 09:18:46;;;;;;;14.60;10.67;;;;;;;;;;5111057;28;20547;-70
2022/03/21 09:21:13;;;;;;;13.40;10.77;;;;;;;;;;5110817;28;20451;-70
2022/03/21 09:23:41;;;;;;;18.07;11.83;;;;;;;;;;5110589;28;20462;-71
2022/03/21 09:26:11;;;;;;;17.37;11.97;;;;;;;;;;5111463;28;20458;-71
2022/03/21 09:28:40;;;;;;;16.60;11.50;;;;;;;;;;5111236;28;20459;-71
2022/03/21 09:31:07;;;;;;;14.20;11.33;;;;;;;;;;5111148;28;20447;-71
2022/03/21 09:33:36;;;;;;;15.47;11.67;;;;;;;;;;5111194;28;20526;-72
2022/03/21 09:36:03;;;;;;;16.23;10.87;;;;;;;;;;5111170;28;20535;-71
2022/03/21 09:38:30;;;;;;;18.00;11.43;;;;;;;;;;5110853;28;21006;-71
2022/03/21 09:40:59;;;;;;;17.23;11.70;;;;;;;;;;5110627;28;20463;-71
2022/03/21 09:43:28;;;;;;;12.63;10.37;;;;;;;;;;5111347;28;20932;-71
2022/03/21 09:45:58;;;;;;;20.40;12.93;;;;;;;;;;5111843;28;20530;-71
2022/03/21 09:48:27;;;;;;;17.10;12.33;;;;;;;;;;5111260;28;21038;-71
2022/03/21 09:50:56;;;;;;;18.47;12.43;;;;;;;;;;5110677;28;20443;-71
2022/03/21 09:53:23;;;;;;;15.43;11.93;;;;;;;;;;5111132;28;20447;-71
2022/03/21 09:55:50;;;;;;;16.97;11.37;;;;;;;;;;5107809;28;20577;-71
2022/03/21 09:58:20;;;;;;;21.40;13.07;;;;;;;;;;5111046;28;20483;-71
2022/03/21 10:00:49;;;;;;;19.73;12.97;;;;;;;;;;5110113;28;20453;-71
2022/03/21 10:03:18;;;;;;;19.70;12.00;;;;;;;;;;5111304;28;20811;-71
2022/03/21 10:05:46;;;;;;;15.63;12.10;;;;;;;;;;5097840;28;20957;-70
2022/03/21 10:08:20;;;;;;;16.37;11.90;;;;;;;;;;5110548;28;20498;-70
2022/03/21 10:10:54;;;;;;;18.67;12.50;;;;;;;;;;5109971;28;20889;-71
2022/03/21 10:13:21;;;;;;;13.03;11.10;;;;;;;;;;5111216;28;20448;-71
2022/03/21 10:15:48;;;;;;;16.73;14.17;;;;;;;;;;5110786;28;20477;-71
2022/03/21 10:18:18;;;;;;;18.37;12.20;;;;;;;;;;5110706;28;20477;-71
2022/03/21 10:20:46;;;;;;;14.37;10.70;;;;;;;;;;5110323;28;20444;-71
2022/03/21 10:23:17;;;;;;;17.10;11.00;;;;;;;;;;5110604;28;20443;-71
2022/03/21 10:25:44;;;;;;;14.43;11.40;;;;;;;;;;5110724;28;20855;-71
2022/03/21 10:28:12;;;;;;;14.30;10.80;;;;;;;;;;5110734;28;20519;-71
2022/03/21 10:30:45;;;;;;;14.77;11.50;;;;;;;;;;5109638;28;20448;-70
2022/03/21 10:33:12;;;;;;;17.03;11.87;;;;;;;;;;5097576;28;20904;-71
2022/03/21 10:35:50;;;;;;;18.30;11.90;;;;;;;;;;5109751;28;20459;-71
2022/03/21 10:38:29;;;;;;;14.97;12.70;;;;;;;;;;5110429;28;21038;-71
2022/03/21 10:40:56;;;;;;;17.23;12.57;;;;;;;;;;5110220;28;20463;-71
2022/03/21 10:43:25;;;;;;;15.70;11.93;;;;;;;;;;5110920;28;20470;-71
2022/03/21 10:45:53;;;;;;;14.83;11.60;;;;;;;;;;5110200;28;20448;-71
2022/03/21 10:48:21;;;;;;;16.87;12.93;;;;;;;;;;5110484;28;20475;-71
2022/03/21 10:50:50;;;;;;;16.00;12.50;;;;;;;;;;5109435;28;20544;-72
2022/03/21 10:53:18;;;;;;;18.07;13.80;;;;;;;;;;5112491;28;20562;-71
2022/03/21 10:55:46;;;;;;;17.53;12.90;;;;;;;;;;5114054;28;20481;-70
2022/03/21 10:58:14;;;;;;;21.03;14.80;;;;;;;;;;5114903;28;20515;-72
2022/03/21 11:00:42;;;;;;;23.83;13.17;;;;;;;;;;5113347;28;20450;-71
2022/03/21 11:03:13;;;;;;;19.43;13.77;;;;;;;;;;5114603;28;20451;-71
2022/03/21 11:05:41;;;;;;;18.33;13.70;;;;;;;;;;5100818;28;20431;-71
2022/03/21 11:08:11;;;;;;;17.67;13.93;;;;;;;;;;5114016;28;20496;-71
2022/03/21 11:10:38;;;;;;;17.10;12.90;;;;;;;;;;5113207;28;20452;-71
2022/03/21 11:13:07;;;;;;;19.10;13.17;;;;;;;;;;5114186;28;20847;-71
2022/03/21 11:15:35;;;;;;;16.20;13.43;;;;;;;;;;5113644;28;20486;-71
2022/03/21 11:18:03;;;;;;;18.93;12.97;;;;;;;;;;5114156;28;20486;-71
2022/03/21 11:20:30;;;;;;;21.20;13.87;;;;;;;;;;5112382;28;20505;-71
2022/03/21 11:22:57;;;;;;;17.30;13.60;;;;;;;;;;5113482;28;20952;-72
2022/03/21 11:25:29;;;;;;;17.70;12.13;;;;;;;;;;5114275;28;20487;-72
2022/03/21 11:28:02;;;;;;;24.00;14.30;;;;;;;;;;5113814;28;21004;-71
2022/03/21 11:30:35;;;;;;;17.50;12.87;;;;;;;;;;5112703;28;20443;-71
2022/03/21 11:33:09;;;;;;;19.30;13.73;;;;;;;;;;5113745;28;20447;-71
2022/03/21 11:35:36;;;;;;;19.70;14.07;;;;;;;;;;5112987;28;20440;-71
2022/03/21 11:38:22;;;;;;;16.07;13.43;;;;;;;;;;5113613;28;20490;-71
2022/03/21 11:40:51;;;;;;;19.53;12.90;;;;;;;;;;5112505;28;20952;-72
2022/03/21 11:43:30;;;;;;;18.30;12.83;;;;;;;;;;5113583;28;20920;-71
2022/03/21 11:45:57;;;;;;;20.60;14.57;;;;;;;;;;5113351;28;20949;-72
2022/03/21 11:48:37;;;;;;;19.40;14.03;;;;;;;;;;5113625;28;20442;-71
2022/03/21 11:51:24;;;;;;;17.07;14.40;;;;;;;;;;5100180;28;20514;-71
2022/03/21 11:53:53;;;;;;;19.47;14.10;;;;;;;;;;5112715;28;20455;-71
2022/03/21 11:56:47;;;;;;;17.17;12.80;;;;;;;;;;5113148;28;20516;-71
2022/03/21 11:59:42;;;;;;;17.00;11.90;;;;;;;;;;5100328;28;20495;-72
2022/03/21 12:02:24;;;;;;;17.97;13.33;;;;;;;;;;5112855;28;20927;-72
2022/03/21 12:04:57;;;;;;;15.63;12.27;;;;;;;;;;5111551;28;20439;-72
2022/03/21 12:07:29;;;;;;;16.50;12.30;;;;;;;;;;5113273;28;20485;-72
2022/03/21 12:09:57;;;;;;;18.10;13.80;;;;;;;;;;5112591;28;20454;-72
2022/03/21 12:12:46;;;;;;;16.20;12.80;;;;;;;;;;5112613;28;20956;-72
2022/03/21 12:15:15;;;;;;;18.47;13.93;;;;;;;;;;5112722;28;20443;-72
2022/03/21 12:17:48;;;;;;;17.73;13.10;;;;;;;;;;5112525;28;20439;-71
2022/03/21 12:20:19;;;;;;;21.60;13.73;;;;;;;;;;5108982;28;20497;-71
2022/03/21 12:22:48;;;;;;;20.47;12.70;;;;;;;;;;5112210;28;20452;-72
2022/03/21 12:25:20;;;;;;;18.03;14.20;;;;;;;;;;5112958;28;20477;-72
2022/03/21 12:27:51;;;;;;;16.70;13.10;;;;;;;;;;5112153;28;20788;-72
2022/03/21 12:30:38;;;;;;;25.53;13.03;;;;;;;;;;5112286;28;20541;-72
2022/03/21 12:33:06;;;;;;;17.43;12.30;;;;;;;;;;5112461;28;20444;-72
2022/03/21 12:35:52;;;;;;;21.87;12.63;;;;;;;;;;5111934;28;20526;-72
2022/03/21 12:38:21;;;;;;;15.57;12.33;;;;;;;;;;5101191;28;20556;-72
2022/03/21 12:40:53;;;;;;;17.27;11.43;;;;;;;;;;5111255;28;20455;-72
2022/03/21 12:43:22;;;;;;;16.77;11.83;;;;;;;;;;5112580;28;20499;-72
2022/03/21 12:45:50;;;;;;;14.43;11.50;;;;;;;;;;5111627;28;20591;-72
2022/03/21 12:48:18;;;;;;;15.63;11.40;;;;;;;;;;5111965;28;20555;-72
2022/03/21 12:50:48;;;;;;;14.00;11.10;;;;;;;;;;5111114;28;20546;-72
2022/03/21 12:53:18;;;;;;;14.20;11.03;;;;;;;;;;5111839;28;20551;-72
2022/03/21 12:55:46;;;;;;;15.27;11.47;;;;;;;;;;5111120;28;20491;-72
2022/03/21 12:58:13;;;;;;;18.67;12.43;;;;;;;;;;5112238;28;20540;-72
2022/03/21 13:00:43;;;;;;;18.03;11.93;;;;;;;;;;5111141;28;20447;-72
2022/03/21 13:03:12;;;;;;;13.77;10.43;;;;;;;;;;5112415;28;20790;-72
2022/03/21 13:11:21;;;;;;;15.10;10.30;;;;;;;;;;5112062;28;20599;-72
2022/03/21 13:13:53;;;;;;;15.97;10.90;;;;;;;;;;5098085;28;20521;-72
2022/03/21 13:16:22;;;;;;;14.13;10.43;;;;;;;;;;5111641;28;20807;-72
2022/03/21 13:18:50;;;;;;;12.53;9.50;;;;;;;;;;5110302;28;20560;-72
2022/03/21 13:21:19;;;;;;;14.27;9.47;;;;;;;;;;5111796;28;20448;-72
2022/03/21 13:23:46;;;;;;;12.70;8.83;;;;;;;;;;5110817;28;20549;-72
2022/03/21 13:26:14;;;;;;;13.17;10.13;;;;;;;;;;5111732;28;20451;-72
2022/03/21 13:28:43;;;;;;;19.20;11.00;;;;;;;;;;5110713;28;20474;-72
2022/03/21 13:31:11;;;;;;;14.30;9.00;;;;;;;;;;5111062;28;20475;-72
2022/03/21 13:33:41;;;;;;;14.47;9.97;;;;;;;;;;5110854;28;20471;-72
2022/03/21 13:36:09;;;;;;;12.13;8.80;;;;;;;;;;5109877;28;20451;-72
2022/03/21 13:38:38;;;;;;;13.80;9.37;;;;;;;;;;5107316;28;20483;-72
2022/03/21 13:41:14;;;;;;;13.77;9.50;;;;;;;;;;5098477;28;20444;-70
2022/03/21 13:43:41;;;;;;;13.37;9.30;;;;;;;;;;5104017;28;20474;-73
2022/03/21 13:46:09;;;;;;;12.23;10.20;;;;;;;;;;5108681;28;20501;-70
2022/03/21 13:48:41;;;;;;;17.60;9.80;;;;;;;;;;5101326;28;20448;-71
2022/03/21 13:51:10;;;;;;;10.33;9.27;;;;;;;;;;5102249;28;20538;-71
2022/03/21 13:53:40;;;;;;;12.73;8.60;;;;;;;;;;5100930;28;20455;-70
2022/03/21 13:56:08;;;;;;;21.30;8.93;;;;;;;;;;5109107;28;20487;-72
2022/03/21 13:58:36;;;;;;;12.97;8.80;;;;;;;;;;5105177;28;20451;-73
2022/03/21 14:01:05;;;;;;;13.20;8.60;;;;;;;;;;5105878;28;20447;-72
2022/03/21 14:03:36;;;;;;;12.73;8.73;;;;;;;;;;5105674;28;20444;-72
2022/03/21 14:06:05;;;;;;;11.97;8.00;;;;;;;;;;5109316;28;20547;-72
2022/03/21 14:08:33;;;;;;;15.10;10.13;;;;;;;;;;5105376;28;20501;-72
2022/03/21 14:11:05;;;;;;;14.23;8.93;;;;;;;;;;5105506;28;20510;-72
2022/03/21 14:13:34;;;;;;;15.27;9.83;;;;;;;;;;5107054;28;20518;-73
2022/03/21 14:16:02;;;;;;;11.37;8.73;;;;;;;;;;5107584;28;20439;-72
2022/03/21 14:18:30;;;;;;;10.47;8.60;;;;;;;;;;5104448;28;20483;-72
2022/03/21 14:20:57;;;;;;;13.83;9.17;;;;;;;;;;5108214;28;20515;-72
2022/03/21 14:23:26;;;;;;;12.97;8.90;;;;;;;;;;5110779;28;20535;-72
2022/03/21 14:28:38;;;;;;;11.30;8.63;;;;;;;;;;5110172;28;20430;-71
2022/03/21 14:31:05;;;;;;;11.50;8.73;;;;;;;;;;5113939;28;20467;-72
2022/03/21 14:33:32;;;;;;;14.43;9.53;;;;;;;;;;5113402;28;20751;-72
2022/03/21 14:36:00;;;;;;;15.53;9.30;;;;;;;;;;5101772;28;20458;-72